Here is the Quick Look data you requested

The Data originates at the National Weather Service, and is made available here by the UAlbany Department of Atmospheric and Environmental Sciences

Surface Observations

KAFN 261452Z AUTO 20007G17KT 150V220 10SM BKN012 OVC017 23/21 A3000 RMK AO2
 SLP159 T02280211 58014=
KASH 261456Z VRB05KT 10SM BKN009 BKN027 24/23 A2997 RMK AO2 SLP158 6////
 T02390228 58014 PNO $=
KBML 261452Z AUTO 00000KT 10SM FEW070 SCT100 23/19 A2991 RMK AO2 SLP127
 T02280189 58013=
KCON 261451Z AUTO 15007KT 10SM SCT014 BKN021 OVC027 23/21 A2996 RMK AO2 SLP144
 T02280211 58011=
KDAW 261451Z AUTO VRB05KT 10SM FEW009 BKN014 OVC021 24/23 A2997 RMK AO2 SLP143
 T02390228 58010=
KHIE 261452Z AUTO 00000KT 10SM FEW033 OVC070 23/19 A2990 RMK AO2 SLP124
 T02330189 58014=
KLCI 261456Z AUTO 08003KT 10SM OVC012 18/18 A2996 RMK AO2 SLP160 T01830178
 58011 PWINO=
KLEB 261453Z 24007KT 10SM BKN009 22/18 A2992 RMK AO2 CIG 008V012 SLP127
 T02170183 58012=
KMHT 261453Z 18007KT 10SM BKN013 OVC021 24/22 A2995 RMK AO2 SLP152 T02390222
 58012=
KMWN 261450Z 23041G60KT 1/16SM FG VV001 12/12 RMK =
KPSM 261456Z 21008KT 10SM BKN015 BKN150 25/22 A2995 RMK AO2A SLP144 T02510224=